Time;durP1;ratioP1;P1;durP2;ratioP2;P2;SDS_P1;SDS_P2;PMS_P1;PMS_P2;Temp;Humidity;BMP_temperature;BMP_pressure;BME280_temperature;BME280_humidity;BME280_pressure;Samples;Min_cycle;Max_cycle;Signal;HPM_P1;HPM_P2
2022/12/17 13:07:40;;;;;;;6.72;3.97;;;;;;;0.98;66.52;100120.31;5051099;28;20057;-65
2022/12/17 13:10:28;;;;;;;4.03;3.42;;;;;;;0.82;66.95;100122.91;5059722;28;20502;-66
2022/12/17 13:13:06;;;;;;;3.35;3.10;;;;;;;0.74;67.93;100124.25;5052997;28;20518;-67
2022/12/17 13:15:41;;;;;;;2.08;1.92;;;;;;;0.74;68.16;100139.31;5052044;28;20036;-66
2022/12/17 13:18:21;;;;;;;4.03;1.55;;;;;;;0.71;67.79;100146.69;5062987;28;20116;-67
2022/12/17 13:20:58;;;;;;;6.78;3.67;;;;;;;0.65;68.16;100153.94;5064299;28;20048;-65
2022/12/17 13:23:32;;;;;;;3.53;3.25;;;;;;;0.58;68.26;100155.31;5060227;28;20045;-66
2022/12/17 13:26:15;;;;;;;0.90;0.90;;;;;;;0.52;68.58;100154.19;5058260;28;20136;-65
2022/12/17 13:28:58;;;;;;;2.03;1.92;;;;;;;0.50;69.68;100159.16;5054558;28;20430;-65
2022/12/17 13:31:30;;;;;;;4.35;3.45;;;;;;;0.49;69.25;100156.53;5056255;28;20045;-66
2022/12/17 13:34:09;;;;;;;3.10;2.70;;;;;;;0.50;69.78;100168.31;5057383;28;20048;-64
2022/12/17 13:36:41;;;;;;;;;;;;;;;0.50;69.92;100173.34;5056310;28;20033;-66
2022/12/17 13:39:25;;;;;;;2.45;2.33;;;;;;;0.51;70.84;100180.06;5054928;28;19966;-65
2022/12/17 13:41:57;;;;;;;5.70;5.03;;;;;;;0.51;70.75;100185.09;5056503;28;20057;-65
2022/12/17 13:44:32;;;;;;;2.00;1.90;;;;;;;0.40;70.92;100181.22;5053657;28;20495;-65
2022/12/17 13:47:00;;;;;;;2.88;2.67;;;;;;;0.42;70.53;100199.72;5066731;28;20387;-65
2022/12/17 13:49:31;;;;;;;3.42;3.13;;;;;;;0.38;71.06;100203.75;5064566;28;20127;-67
2022/12/17 13:52:02;;;;;;;8.00;4.00;;;;;;;0.41;71.19;100208.91;5056950;28;20040;-64
2022/12/17 13:54:38;;;;;;;2.45;2.33;;;;;;;0.43;71.58;100216.53;5063913;28;20120;-64
2022/12/17 13:57:09;;;;;;;2.65;2.28;;;;;;;0.36;71.26;100217.84;5063050;28;20079;-65
2022/12/17 13:59:39;;;;;;;8.38;3.75;;;;;;;0.34;71.53;100223.59;5055527;28;20055;-64
2022/12/17 14:02:24;;;;;;;1.05;1.05;;;;;;;0.29;71.68;100222.53;5056298;28;20044;-66
2022/12/17 14:04:53;;;;;;;6.50;3.60;;;;;;;0.28;71.91;100221.66;5054606;28;20052;-68
2022/12/17 14:07:22;;;;;;;5.03;3.65;;;;;;;0.22;72.16;100231.38;5058932;28;20394;-64
2022/12/17 14:09:51;;;;;;;7.43;4.07;;;;;;;0.21;72.46;100234.69;5058407;28;20049;-65
2022/12/17 14:12:22;;;;;;;3.13;2.92;;;;;;;0.23;72.67;100232.25;5064420;28;20368;-65
2022/12/17 14:14:55;;;;;;;6.45;4.30;;;;;;;0.19;72.85;100230.41;5054695;28;20037;-66
2022/12/17 14:17:26;;;;;;;2.65;2.45;;;;;;;0.14;73.18;100235.19;5053406;28;20060;-65
2022/12/17 14:19:59;;;;;;;2.80;2.30;;;;;;;0.09;72.95;100236.63;5054119;28;20364;-66
2022/12/17 14:22:35;;;;;;;2.17;1.92;;;;;;;0.11;73.13;100244.19;5060205;28;20049;-65
2022/12/17 14:25:06;;;;;;;5.22;2.63;;;;;;;0.07;73.50;100237.31;5064928;28;20545;-67
2022/12/17 14:27:36;;;;;;;1.83;1.73;;;;;;;0.06;73.57;100248.13;5054151;28;20068;-65
2022/12/17 14:32:58;;;;;;;4.50;2.00;;;;;;;0.03;73.86;100248.84;5105938;27;20405;-65
2022/12/17 14:35:29;;;;;;;6.55;3.47;;;;;;;0.03;74.07;100263.00;5085712;28;20064;-66
2022/12/17 14:37:58;;;;;;;2.03;1.92;;;;;;;0.00;74.50;100268.78;5074490;28;20048;-65
2022/12/17 14:40:27;;;;;;;1.20;1.17;;;;;;;-0.01;74.26;100274.56;5077149;28;20390;-65
2022/12/17 14:43:01;;;;;;;1.75;1.65;;;;;;;-0.04;74.60;100275.28;5089739;28;20050;-65
2022/12/17 14:45:30;;;;;;;4.43;1.60;;;;;;;-0.09;74.38;100279.19;5086238;28;20132;-66
2022/12/17 14:48:05;;;;;;;2.47;2.33;;;;;;;-0.12;74.92;100283.22;5099142;28;20127;-66
2022/12/17 14:50:37;;;;;;;6.45;2.88;;;;;;;-0.22;74.75;100274.34;5109600;28;20299;-66
2022/12/17 14:53:24;;;;;;;2.45;2.10;;;;;;;-0.19;74.77;100292.03;5103844;28;20051;-64
2022/12/17 14:55:55;;;;;;;1.33;1.23;;;;;;;-0.19;75.14;100292.03;5095636;28;20067;-65
2022/12/17 14:58:25;;;;;;;1.95;1.85;;;;;;;-0.27;75.28;100285.78;5071481;28;20156;-65
2022/12/17 15:00:59;;;;;;;2.20;2.00;;;;;;;-0.23;75.10;100312.75;5103664;28;20121;-66
2022/12/17 15:03:32;;;;;;;1.30;1.25;;;;;;;-0.23;75.38;100320.25;5106892;28;20055;-65
2022/12/17 15:06:03;;;;;;;2.03;1.85;;;;;;;-0.23;75.15;100330.28;5094604;28;20086;-66
2022/12/17 15:08:35;;;;;;;2.15;1.77;;;;;;;-0.24;75.64;100343.59;5090658;28;20044;-66
2022/12/17 15:11:04;;;;;;;1.85;1.75;;;;;;;-0.24;75.79;100348.63;5088292;28;20379;-67
2022/12/17 15:13:33;;;;;;;1.63;1.53;;;;;;;-0.25;75.53;100361.97;5071666;28;20409;-66
2022/12/17 15:16:01;;;;;;;2.28;2.00;;;;;;;-0.26;75.78;100362.72;5095004;28;20063;-66
2022/12/17 15:18:31;;;;;;;1.98;1.70;;;;;;;-0.27;75.55;100378.56;5089681;28;20402;-66
2022/12/17 15:21:02;;;;;;;1.95;1.85;;;;;;;-0.30;75.42;100378.41;5088432;28;20070;-65
2022/12/17 15:23:32;;;;;;;3.92;3.63;;;;;;;-0.31;75.36;100381.69;5087679;28;20131;-67
2022/12/17 15:26:02;;;;;;;1.95;1.85;;;;;;;-0.29;75.54;100390.13;5110287;28;20040;-66
2022/12/17 15:28:31;;;;;;;1.45;1.35;;;;;;;-0.27;75.51;100393.63;5105027;28;20040;-66
2022/12/17 15:31:00;;;;;;;1.53;1.43;;;;;;;-0.29;75.64;100390.13;5092247;28;20052;-66
2022/12/17 15:33:29;;;;;;;3.75;3.45;;;;;;;-0.30;75.39;100393.44;5089511;28;20060;-66
2022/12/17 15:35:59;;;;;;;0.90;0.90;;;;;;;-0.33;75.48;100403.31;5087093;28;20044;-66
2022/12/17 15:38:28;;;;;;;2.38;2.17;;;;;;;-0.33;74.82;100403.31;5107179;28;20048;-66
2022/12/17 15:40:59;;;;;;;2.10;1.85;;;;;;;-0.32;75.23;100410.06;5073467;28;20048;-67
2022/12/17 15:43:26;;;;;;;1.95;1.85;;;;;;;-0.30;75.09;100408.50;5075848;28;20045;-66
2022/12/17 15:46:01;;;;;;;1.25;1.17;;;;;;;-0.30;75.33;100418.53;5076031;28;20442;-65
2022/12/17 15:48:30;;;;;;;3.03;2.83;;;;;;;-0.34;75.10;100421.66;5076373;28;20052;-65
2022/12/17 15:51:00;;;;;;;1.42;1.33;;;;;;;-0.30;74.88;100421.03;5070816;28;20449;-65
2022/12/17 15:53:29;;;;;;;2.30;2.15;;;;;;;-0.32;74.85;100420.09;5076664;28;20043;-66
2022/12/17 15:55:59;;;;;;;0.98;0.95;;;;;;;-0.31;74.87;100426.81;5089985;28;20051;-66
2022/12/17 15:58:28;;;;;;;1.85;1.73;;;;;;;-0.34;74.92;100425.81;5090969;28;20446;-65
2022/12/17 16:00:57;;;;;;;1.08;1.05;;;;;;;-0.35;74.77;100429.94;5086388;28;20067;-65
2022/12/17 16:03:26;;;;;;;3.13;2.92;;;;;;;-0.39;74.67;100433.06;5055723;28;20076;-65
2022/12/17 16:06:02;;;;;;;1.45;1.35;;;;;;;-0.41;74.25;100437.16;5058361;28;20041;-65
2022/12/17 16:08:31;;;;;;;1.80;1.63;;;;;;;-0.39;74.45;100435.59;5073591;28;20493;-65
2022/12/17 16:10:59;;;;;;;1.25;1.17;;;;;;;-0.36;74.86;100437.41;5095898;28;20101;-65
2022/12/17 16:13:28;;;;;;;1.88;1.77;;;;;;;-0.35;74.57;100439.97;5076493;28;20069;-65
2022/12/17 16:15:59;;;;;;;5.35;3.80;;;;;;;-0.35;74.49;100439.09;5057985;28;20151;-65
2022/12/17 16:18:32;;;;;;;5.50;2.75;;;;;;;-0.42;74.23;100432.91;5075628;28;20052;-65
2022/12/17 16:21:04;;;;;;;2.17;2.05;;;;;;;-0.40;73.97;100436.34;5075583;28;20124;-65
2022/12/17 16:23:36;;;;;;;2.28;2.08;;;;;;;-0.41;73.75;100444.66;5075476;28;20510;-64
2022/12/17 16:26:07;;;;;;;2.35;2.25;;;;;;;-0.41;74.18;100451.31;5064108;28;20049;-64
2022/12/17 16:28:39;;;;;;;1.73;1.63;;;;;;;-0.42;73.90;100447.06;5055327;28;20040;-66
2022/12/17 16:31:11;;;;;;;1.77;1.67;;;;;;;-0.44;74.07;100448.63;5087494;28;20040;-65
2022/12/17 16:33:43;;;;;;;1.70;1.60;;;;;;;-0.41;73.79;100453.81;5095456;28;20032;-65
2022/12/17 16:36:20;;;;;;;2.33;2.15;;;;;;;-0.44;73.92;100454.53;5082880;28;20049;-65
2022/12/17 16:38:51;;;;;;;0.95;0.95;;;;;;;-0.44;73.74;100452.00;5091234;28;20386;-64
2022/12/17 16:41:22;;;;;;;1.58;1.38;;;;;;;-0.46;74.05;100452.72;5088300;28;20044;-65
2022/12/17 16:43:51;;;;;;;2.15;2.05;;;;;;;-0.48;73.80;100457.63;5077767;28;20135;-67
2022/12/17 16:46:28;;;;;;;1.13;1.10;;;;;;;-0.47;73.49;100468.50;5071314;28;20441;-65
2022/12/17 16:49:05;;;;;;;1.75;1.42;;;;;;;-0.56;73.42;100458.84;5067880;28;20041;-65
2022/12/17 16:51:35;;;;;;;1.23;1.23;;;;;;;-0.47;73.70;100473.53;5069904;28;20048;-67
2022/12/17 16:54:06;;;;;;;1.58;1.48;;;;;;;-0.53;73.59;100486.59;5073426;28;20084;-65
2022/12/17 16:56:35;;;;;;;3.33;3.13;;;;;;;-0.52;73.55;100495.84;5070046;28;20411;-66
2022/12/17 16:59:09;;;;;;;2.40;2.10;;;;;;;-0.53;73.49;100494.13;5074279;28;20392;-66
2022/12/17 17:01:38;;;;;;;1.38;1.33;;;;;;;-0.54;73.75;100507.44;5073641;28;20040;-65
2022/12/17 17:04:09;;;;;;;2.20;1.83;;;;;;;-0.57;73.57;100507.25;5067580;28;20056;-65
2022/12/17 17:06:41;;;;;;;0.98;0.98;;;;;;;-0.57;73.62;100507.25;5057863;28;20056;-65
2022/12/17 17:09:10;;;;;;;1.88;1.77;;;;;;;-0.58;73.95;100513.06;5073622;28;20139;-65
2022/12/17 17:11:38;;;;;;;2.25;2.08;;;;;;;-0.58;73.90;100510.56;5074264;28;20044;-65
2022/12/17 17:14:07;;;;;;;2.35;2.20;;;;;;;-0.56;74.03;100518.16;5074443;28;20495;-64
2022/12/17 17:16:36;;;;;;;1.48;1.38;;;;;;;-0.59;73.73;100523.84;5074151;28;20052;-65
2022/12/17 17:19:06;;;;;;;8.90;2.22;;;;;;;-0.59;73.94;100523.84;5071646;28;20044;-65
2022/12/17 17:21:36;;;;;;;0.68;0.68;;;;;;;-0.58;73.82;100525.59;5066913;28;20113;-65
2022/12/17 17:24:09;;;;;;;2.15;2.05;;;;;;;-0.64;73.70;100535.25;5074655;28;20044;-65
2022/12/17 17:26:44;;;;;;;;;;;;;;;-0.65;73.75;100532.66;5057122;28;20067;-65
2022/12/17 17:29:12;;;;;;;2.13;2.03;;;;;;;-0.67;73.59;100540.94;5074149;28;20018;-65
2022/12/17 17:31:43;;;;;;;1.23;1.15;;;;;;;-0.64;74.00;100541.91;5074171;28;20131;-65
2022/12/17 17:34:32;;;;;;;1.88;1.77;;;;;;;-0.67;73.86;100548.47;5073757;28;20079;-66
2022/12/17 17:37:00;;;;;;;2.05;1.95;;;;;;;-0.66;73.89;100544.31;5074067;28;20055;-65
2022/12/17 17:39:32;;;;;;;3.03;2.83;;;;;;;-0.65;74.08;100541.06;5073579;28;20036;-65
2022/12/17 17:42:01;;;;;;;0.75;0.75;;;;;;;-0.65;74.04;100552.72;5074304;28;20096;-65
2022/12/17 17:44:30;;;;;;;0.88;0.88;;;;;;;-0.66;73.86;100556.84;5073889;28;20048;-64
2022/12/17 17:46:59;;;;;;;1.47;1.37;;;;;;;-0.67;73.84;100555.13;5073376;28;20487;-65
2022/12/17 17:49:28;;;;;;;2.67;2.47;;;;;;;-0.71;73.97;100563.25;5073274;28;20499;-65
2022/12/17 17:51:56;;;;;;;3.15;2.95;;;;;;;-0.69;73.73;100566.69;5073384;28;20049;-65
2022/12/17 17:54:42;;;;;;;0.90;0.88;;;;;;;-0.72;73.86;100572.41;5073821;28;20045;-65
2022/12/17 17:57:10;;;;;;;7.32;2.65;;;;;;;-0.72;73.60;100576.56;5089240;28;20405;-64
2022/12/17 17:59:39;;;;;;;0.65;0.65;;;;;;;-0.71;73.81;100583.28;5068506;28;20041;-66
2022/12/17 18:02:09;;;;;;;4.22;2.45;;;;;;;-0.70;73.67;100580.03;5067317;28;20049;-65
2022/12/17 18:04:38;;;;;;;0.80;0.80;;;;;;;-0.74;74.01;100583.09;5065193;28;20375;-64
2022/12/17 18:07:07;;;;;;;1.60;1.50;;;;;;;-0.80;73.93;100587.78;5067522;28;20040;-64
2022/12/17 18:09:54;;;;;;;2.85;2.15;;;;;;;-0.87;74.05;100588.19;5093191;28;20040;-65
2022/12/17 18:15:02;;;;;;;1.80;1.70;;;;;;;-0.84;74.34;100595.91;5073218;28;20055;-64
2022/12/17 18:17:50;;;;;;;1.58;1.15;;;;;;;-0.90;74.49;100603.91;5073839;28;20049;-64
2022/12/17 18:20:19;;;;;;;3.88;3.50;;;;;;;-0.93;74.53;100607.84;5074416;28;20565;-65
2022/12/17 18:22:49;;;;;;;1.60;1.50;;;;;;;-0.97;74.32;100606.81;5073471;28;20075;-65
2022/12/17 18:25:19;;;;;;;2.33;2.15;;;;;;;-0.99;74.55;100605.00;5073479;28;20486;-64
2022/12/17 18:27:48;;;;;;;0.90;0.90;;;;;;;-1.00;74.90;100608.28;5073765;28;20136;-65
2022/12/17 18:30:16;;;;;;;1.95;1.83;;;;;;;-0.99;74.84;100610.00;5073980;28;20486;-64
2022/12/17 18:32:50;;;;;;;1.07;1.07;;;;;;;-1.03;74.70;100608.13;5073181;28;20049;-64
2022/12/17 18:35:19;;;;;;;3.60;2.50;;;;;;;-1.09;74.81;100618.63;5073711;28;20041;-64
2022/12/17 18:37:48;;;;;;;4.83;3.00;;;;;;;-1.08;74.83;100630.34;5074183;28;20041;-64
2022/12/17 18:40:16;;;;;;;3.97;3.30;;;;;;;-1.10;74.81;100633.53;5073282;28;20375;-64
2022/12/17 18:45:25;;;;;;;2.30;2.10;;;;;;;-1.16;75.28;100640.69;5073292;28;20047;-64
2022/12/17 18:47:54;;;;;;;1.35;1.27;;;;;;;-1.12;75.26;100637.59;5073562;28;20044;-64
2022/12/17 18:50:22;;;;;;;1.55;1.45;;;;;;;-1.10;74.97;100643.53;5073548;28;20089;-64
2022/12/17 18:52:51;;;;;;;3.20;2.95;;;;;;;-1.09;74.95;100642.78;5073057;28;20040;-64
2022/12/17 18:55:20;;;;;;;2.65;2.45;;;;;;;-1.09;74.89;100647.78;5073167;28;20045;-64
2022/12/17 18:57:50;;;;;;;2.53;2.30;;;;;;;-1.09;74.91;100642.78;5073486;28;20037;-65
2022/12/17 19:00:19;;;;;;;4.88;4.50;;;;;;;-1.12;74.78;100643.47;5073141;28;20045;-64
2022/12/17 19:02:47;;;;;;;7.03;3.47;;;;;;;-1.14;74.86;100649.16;5073107;28;20052;-64
2022/12/17 19:05:16;;;;;;;3.20;2.83;;;;;;;-1.16;74.99;100651.56;5073073;28;20098;-64
2022/12/17 19:07:45;;;;;;;6.03;3.57;;;;;;;-1.20;75.10;100658.81;5073340;28;20278;-63
2022/12/17 19:10:14;;;;;;;1.58;1.48;;;;;;;-1.23;75.08;100661.13;5073072;28;20320;-64
2022/12/17 19:12:43;;;;;;;1.30;1.08;;;;;;;-1.25;75.16;100670.19;5073374;28;20071;-64
2022/12/17 19:15:13;;;;;;;1.48;1.38;;;;;;;-1.26;75.31;100670.94;5072886;28;20127;-65
2022/12/17 19:17:41;;;;;;;1.38;1.27;;;;;;;-1.24;75.30;100665.25;5073380;28;20495;-64
2022/12/17 19:20:11;;;;;;;1.90;1.67;;;;;;;-1.25;75.21;100675.19;5076670;28;20037;-64
2022/12/17 19:22:39;;;;;;;3.80;3.50;;;;;;;-1.28;75.30;100675.00;5076698;28;20044;-63
2022/12/17 19:25:09;;;;;;;4.05;3.72;;;;;;;-1.33;75.34;100672.22;5076834;28;20498;-64
2022/12/17 19:27:37;;;;;;;;;;;;;;;-1.33;75.50;100672.22;5077311;28;20562;-64
2022/12/17 19:30:07;;;;;;;9.93;2.17;;;;;;;-1.38;75.26;100679.44;5076868;28;19927;-64
2022/12/17 19:32:37;;;;;;;1.33;1.23;;;;;;;-1.39;75.23;100682.69;5076314;28;20055;-64
2022/12/17 19:35:06;;;;;;;2.00;1.85;;;;;;;-1.44;75.52;100676.53;5076346;28;20047;-64
2022/12/17 19:37:35;;;;;;;1.70;1.33;;;;;;;-1.41;75.70;100689.25;5076657;28;20425;-64
2022/12/17 19:40:04;;;;;;;15.53;6.90;;;;;;;-1.46;75.70;100690.59;5076294;28;20053;-64
2022/12/17 19:42:33;;;;;;;0.93;0.93;;;;;;;-1.46;75.50;100705.63;5076315;28;20041;-64
2022/12/17 19:45:05;;;;;;;5.35;4.95;;;;;;;-1.50;75.35;100711.22;5076669;28;20119;-64
2022/12/17 19:47:35;;;;;;;2.95;2.38;;;;;;;-1.50;75.56;100711.22;5076568;28;20068;-64
2022/12/17 19:50:06;;;;;;;1.03;1.03;;;;;;;-1.49;75.47;100720.44;5076184;28;20055;-64
2022/12/17 19:52:36;;;;;;;2.45;2.25;;;;;;;-1.49;75.55;100715.44;5076238;28;20060;-64
2022/12/17 19:55:05;;;;;;;6.13;4.30;;;;;;;-1.46;75.52;100723.13;5076318;28;20055;-64
2022/12/17 19:57:34;;;;;;;10.95;2.45;;;;;;;-1.45;75.36;100731.53;5076043;28;20053;-63
2022/12/17 20:00:04;;;;;;;3.10;2.90;;;;;;;-1.48;75.23;100732.19;5076609;28;20041;-63
2022/12/17 20:02:40;;;;;;;2.30;2.20;;;;;;;-1.47;75.08;100733.94;5076031;28;20048;-63
2022/12/17 20:05:10;;;;;;;1.58;1.48;;;;;;;-1.47;75.03;100743.94;5075949;28;20048;-65
2022/12/17 20:07:40;;;;;;;2.00;1.90;;;;;;;-1.48;74.64;100742.19;5076158;28;20052;-64
2022/12/17 20:10:09;;;;;;;2.08;1.95;;;;;;;-1.50;74.65;100753.75;5076043;28;20398;-62
2022/12/17 20:12:37;;;;;;;1.63;1.52;;;;;;;-1.45;74.54;100767.44;5075776;28;20045;-63
2022/12/17 20:15:07;;;;;;;1.42;1.38;;;;;;;-1.45;74.24;100767.44;5075949;28;20486;-64
2022/12/17 20:17:35;;;;;;;1.80;1.70;;;;;;;-1.42;74.36;100776.78;5076113;28;20048;-62
2022/12/17 20:20:04;;;;;;;0.88;0.85;;;;;;;-1.43;74.27;100790.03;5075999;28;20067;-63
2022/12/17 20:22:34;;;;;;;1.05;1.00;;;;;;;-1.49;74.28;100790.50;5075881;28;20490;-64
2022/12/17 20:25:08;;;;;;;0.98;0.98;;;;;;;-1.54;74.25;100796.88;5075601;28;20068;-64
2022/12/17 20:27:37;;;;;;;7.43;2.78;;;;;;;-1.61;74.57;100804.72;5075479;28;20044;-63
2022/12/17 20:30:07;;;;;;;2.35;2.15;;;;;;;-1.67;74.78;100804.34;5075328;28;20505;-62
2022/12/17 20:32:36;;;;;;;3.08;2.78;;;;;;;-1.66;74.62;100816.09;5075347;28;20053;-63
2022/12/17 20:35:05;;;;;;;1.63;1.52;;;;;;;-1.60;74.97;100816.50;5075242;28;20123;-64
2022/12/17 20:37:36;;;;;;;1.40;1.30;;;;;;;-1.56;74.66;100813.41;5075289;28;20124;-64
2022/12/17 20:40:06;;;;;;;1.13;1.10;;;;;;;-1.56;74.27;100813.41;5075558;28;20470;-63
2022/12/17 20:42:35;;;;;;;0.60;0.60;;;;;;;-1.57;74.25;100814.19;5075575;28;20498;-63
2022/12/17 20:45:04;;;;;;;2.63;1.80;;;;;;;-1.59;74.13;100810.72;5075176;28;20071;-63
2022/12/17 20:47:33;;;;;;;0.60;0.60;;;;;;;-1.54;73.85;100811.91;5075103;28;20086;-63
2022/12/17 20:50:01;;;;;;;1.77;1.67;;;;;;;-1.51;73.80;100816.22;5075069;28;20036;-63
2022/12/17 20:52:30;;;;;;;1.20;1.17;;;;;;;-1.51;73.71;100821.22;5075712;28;20364;-63
2022/12/17 20:55:00;;;;;;;1.90;1.77;;;;;;;-1.61;73.75;100827.25;5074893;28;20506;-63
2022/12/17 20:57:29;;;;;;;0.57;0.57;;;;;;;-1.64;73.94;100832.09;5075171;28;20124;-64
2022/12/17 20:59:57;;;;;;;1.67;1.58;;;;;;;-1.63;74.06;100836.31;5074865;28;20119;-64
2022/12/17 21:02:26;;;;;;;2.97;2.63;;;;;;;-1.60;74.02;100846.53;5074993;28;20044;-64
2022/12/17 21:04:57;;;;;;;1.85;1.73;;;;;;;-1.63;74.36;100838.81;5074690;28;20056;-64
2022/12/17 21:07:26;;;;;;;1.83;1.73;;;;;;;-1.63;74.10;100838.81;5075291;28;20501;-64
2022/12/17 21:09:55;;;;;;;1.95;1.75;;;;;;;-1.60;74.49;100841.50;5074661;28;20128;-63
2022/12/17 21:13:27;;;;;;;1.00;1.00;;;;;;;-1.60;74.41;100839.00;5074589;28;20100;-63
2022/12/17 21:15:13;;;;;;;1.83;1.67;;;;;;;-1.61;74.43;100838.94;5074620;28;20526;-63
2022/12/17 21:17:42;;;;;;;0.80;0.80;;;;;;;-1.61;74.00;100838.94;5074506;28;20040;-63
2022/12/17 21:20:11;;;;;;;4.90;4.53;;;;;;;-1.59;74.21;100837.38;5074411;28;20044;-62
2022/12/17 21:22:41;;;;;;;1.17;1.13;;;;;;;-1.57;73.90;100840.84;5074648;28;20044;-64
2022/12/17 21:25:10;;;;;;;1.05;0.98;;;;;;;-1.54;73.55;100841.94;5074343;28;20105;-63
2022/12/17 21:27:40;;;;;;;1.48;1.38;;;;;;;-1.52;73.43;100845.41;5073716;28;20539;-64
2022/12/17 21:30:10;;;;;;;1.10;1.10;;;;;;;-1.50;73.28;100850.50;5066409;28;20389;-63
2022/12/17 21:32:41;;;;;;;2.25;2.15;;;;;;;-1.49;73.35;100854.75;5074329;28;20161;-63
2022/12/17 21:35:10;;;;;;;0.88;0.88;;;;;;;-1.50;73.27;100858.88;5074418;28;20158;-63
2022/12/17 21:37:39;;;;;;;1.55;1.45;;;;;;;-1.51;73.15;100854.63;5060170;28;20048;-62
2022/12/17 21:40:09;;;;;;;0.73;0.73;;;;;;;-1.50;73.13;100855.50;5054017;28;20047;-62
2022/12/17 21:45:17;;;;;;;1.75;1.65;;;;;;;-1.52;73.22;100865.41;5053957;28;20052;-63
2022/12/17 21:47:46;;;;;;;9.05;4.18;;;;;;;-1.54;72.92;100871.09;5054206;28;20056;-63
2022/12/17 21:50:15;;;;;;;1.17;1.17;;;;;;;-1.54;73.23;100868.59;5053824;28;20060;-63
2022/12/17 21:52:43;;;;;;;3.28;3.00;;;;;;;-1.56;73.04;100868.47;5053924;28;20069;-62
2022/12/17 21:55:12;;;;;;;1.45;1.35;;;;;;;-1.55;72.95;100882.72;5054095;28;20471;-63
2022/12/17 21:57:40;;;;;;;1.50;1.40;;;;;;;-1.57;73.02;100883.41;5053855;28;20044;-63
2022/12/17 22:00:10;;;;;;;2.95;2.67;;;;;;;-1.60;73.14;100896.56;5054053;28;20153;-63
2022/12/17 22:02:41;;;;;;;1.50;1.40;;;;;;;-1.61;73.24;100889.81;5053716;28;20057;-63
2022/12/17 22:05:10;;;;;;;1.70;1.60;;;;;;;-1.61;73.16;100894.81;5053665;28;20044;-63
2022/12/17 22:07:45;;;;;;;1.95;1.65;;;;;;;-1.61;73.45;100898.97;5054035;28;20057;-63
2022/12/17 22:10:16;;;;;;;24.30;2.35;;;;;;;-1.64;73.59;100904.66;5053604;28;20053;-62
2022/12/17 22:15:43;;;;;;;6.03;2.13;;;;;;;-1.67;73.37;100914.44;5053495;28;20037;-64
2022/12/17 22:18:17;;;;;;;1.65;1.55;;;;;;;-1.71;73.43;100912.50;5054070;28;20049;-63
2022/12/17 22:20:56;;;;;;;1.98;1.83;;;;;;;-1.76;73.59;100920.47;5053488;28;20095;-63
2022/12/17 22:23:24;;;;;;;0.73;0.73;;;;;;;-1.78;73.69;100924.50;5053848;28;20053;-64
2022/12/17 22:25:54;;;;;;;0.70;0.70;;;;;;;-1.79;73.91;100918.63;5053429;28;20045;-63
2022/12/17 22:28:23;;;;;;;1.05;1.05;;;;;;;-1.79;73.97;100923.63;5053729;28;20479;-63
2022/12/17 22:33:34;;;;;;;1.17;1.10;;;;;;;-1.92;74.10;100936.06;5053696;28;20135;-63
2022/12/17 22:36:22;;;;;;;4.20;3.80;;;;;;;-2.02;73.88;100936.22;5053308;28;20499;-63
2022/12/17 22:39:14;;;;;;;2.47;2.33;;;;;;;-2.10;74.03;100939.81;5053410;28;20045;-61
2022/12/17 22:44:53;;;;;;;2.70;2.00;;;;;;;-2.25;74.58;100933.72;5053694;28;20094;-63
2022/12/17 22:47:27;;;;;;;0.80;0.80;;;;;;;-2.25;74.76;100943.72;5053338;28;20050;-63
2022/12/17 22:49:57;;;;;;;2.55;2.40;;;;;;;-2.24;75.09;100936.34;5053547;28;20041;-63
2022/12/17 22:52:27;;;;;;;1.08;1.08;;;;;;;-2.28;74.79;100949.38;5053211;28;20139;-63
2022/12/17 22:54:56;;;;;;;4.60;3.67;;;;;;;-2.28;75.00;100946.03;5057475;28;20567;-63
2022/12/17 22:57:25;;;;;;;0.52;0.52;;;;;;;-2.27;75.13;100945.25;5057170;28;20048;-62
2022/12/17 23:00:13;;;;;;;0.85;0.85;;;;;;;-2.25;75.27;100943.72;5057175;28;20052;-62
2022/12/17 23:02:41;;;;;;;0.70;0.70;;;;;;;-2.24;75.22;100947.97;5057118;28;20045;-64
2022/12/17 23:05:12;;;;;;;1.83;1.73;;;;;;;-2.20;75.01;100957.41;5057045;28;20052;-63
2022/12/17 23:07:40;;;;;;;3.38;1.95;;;;;;;-2.17;75.10;100962.66;5057084;28;20495;-63
2022/12/17 23:10:10;;;;;;;1.85;1.75;;;;;;;-2.17;75.38;100962.66;5056967;28;20041;-63
2022/12/17 23:15:18;;;;;;;;;;;;;;;-2.18;74.91;100965.91;5057307;28;20491;-62
2022/12/17 23:17:47;;;;;;;2.47;2.27;;;;;;;-2.21;75.46;100971.53;5056791;28;19931;-62
2022/12/17 23:20:17;;;;;;;0.70;0.70;;;;;;;-2.22;74.99;100968.94;5057038;28;20281;-62
2022/12/17 23:22:46;;;;;;;1.60;1.50;;;;;;;-2.23;75.34;100972.22;5056677;28;20060;-61
2022/12/17 23:25:16;;;;;;;0.88;0.88;;;;;;;-2.28;75.48;100973.53;5056680;28;20049;-63
2022/12/17 23:27:45;;;;;;;2.90;2.70;;;;;;;-2.29;75.73;100976.78;5056955;28;20044;-61
2022/12/17 23:30:15;;;;;;;;;;;;;;;-2.30;75.17;100980.91;5057318;28;20047;-62
2022/12/17 23:32:45;;;;;;;0.60;0.60;;;;;;;-2.33;75.50;100973.22;5056380;28;19982;-62
2022/12/17 23:35:14;;;;;;;0.60;0.60;;;;;;;-2.30;75.46;100980.91;5056818;28;20037;-62
2022/12/17 23:37:44;;;;;;;3.58;1.73;;;;;;;-2.31;75.23;100980.81;5056732;28;20052;-61
2022/12/17 23:40:14;;;;;;;2.47;2.35;;;;;;;-2.28;75.40;100983.53;5056428;28;20045;-62
2022/12/17 23:42:43;;;;;;;1.48;1.40;;;;;;;-2.29;75.22;100991.78;5039041;28;20051;-62
2022/12/17 23:45:13;;;;;;;3.80;2.87;;;;;;;-2.30;75.29;100995.03;5056347;28;20073;-62
2022/12/17 23:47:42;;;;;;;4.15;2.22;;;;;;;-2.28;75.36;100999.38;5056304;28;20354;-62
2022/12/17 23:50:11;;;;;;;1.70;1.58;;;;;;;-2.28;75.22;100998.53;5056800;28;20430;-63
2022/12/17 23:52:40;;;;;;;0.70;0.70;;;;;;;-2.29;75.18;100996.78;5056222;28;20049;-63
2022/12/17 23:55:11;;;;;;;1.30;1.20;;;;;;;-2.28;75.03;100998.53;5056192;28;20053;-62
2022/12/17 23:57:40;;;;;;;3.92;3.63;;;;;;;-2.31;74.91;100999.19;5056076;28;20049;-62
